createdAt,value
2023-05-11T00:01:56.629Z,13.50
2023-05-11T00:04:23.400Z,13.40
2023-05-11T00:06:50.491Z,13.50
2023-05-11T00:09:17.215Z,13.50
2023-05-11T00:11:43.887Z,13.50
2023-05-11T00:14:10.702Z,13.50
2023-05-11T00:16:37.364Z,13.50
2023-05-11T00:19:04.222Z,13.50
2023-05-11T00:21:32.153Z,13.60
2023-05-11T00:23:58.842Z,13.60
2023-05-11T00:26:26.757Z,13.60
2023-05-11T00:28:53.474Z,13.60
2023-05-11T00:31:20.509Z,13.50
2023-05-11T00:33:47.538Z,13.40
2023-05-11T00:36:15.087Z,13.50
2023-05-11T00:38:41.724Z,13.50
2023-05-11T00:41:08.755Z,13.50
2023-05-11T00:43:35.480Z,13.60
2023-05-11T00:46:03.391Z,13.50
2023-05-11T00:48:30.370Z,13.50
2023-05-11T00:50:59.376Z,13.60
2023-05-11T00:53:26.487Z,13.60
2023-05-11T00:55:55.413Z,13.60
2023-05-11T00:58:23.094Z,13.60
2023-05-11T01:00:51.331Z,13.60
2023-05-11T01:03:18.760Z,13.60
2023-05-11T01:06:06.206Z,13.70
2023-05-11T01:08:59.175Z,13.70
2023-05-11T01:11:33.833Z,13.70
2023-05-11T01:14:06.420Z,13.60
2023-05-11T01:16:40.240Z,13.60
2023-05-11T01:19:39.374Z,13.60
2023-05-11T01:22:28.885Z,13.70
2023-05-11T01:25:32.842Z,13.70
2023-05-11T01:28:23.122Z,13.70
2023-05-11T01:31:00.855Z,13.70
2023-05-11T01:33:35.124Z,13.70
2023-05-11T01:36:06.243Z,13.70
2023-05-11T01:38:38.458Z,13.60
2023-05-11T01:41:12.059Z,13.50
2023-05-11T01:43:41.057Z,13.50
2023-05-11T01:46:10.288Z,13.50
2023-05-11T01:48:40.606Z,13.60
2023-05-11T01:51:08.802Z,13.50
2023-05-11T01:53:38.353Z,13.70
2023-05-11T01:56:07.100Z,13.50
2023-05-11T01:58:37.305Z,13.60
2023-05-11T02:01:04.645Z,13.50
2023-05-11T02:03:33.051Z,13.60
2023-05-11T02:06:01.906Z,13.50
2023-05-11T02:08:31.204Z,13.50
2023-05-11T02:10:58.814Z,13.50
2023-05-11T02:13:27.445Z,13.50
2023-05-11T02:15:56.784Z,13.60
2023-05-11T02:18:23.767Z,13.60
2023-05-11T02:20:59.693Z,13.60
2023-05-11T02:23:27.659Z,13.50
2023-05-11T02:25:56.525Z,13.70
2023-05-11T02:28:23.664Z,13.50
2023-05-11T02:30:54.352Z,13.50
2023-05-11T02:33:27.997Z,13.40
2023-05-11T02:35:56.468Z,13.50
2023-05-11T02:38:33.536Z,13.50
2023-05-11T02:41:07.200Z,13.40
2023-05-11T02:43:36.674Z,13.40
2023-05-11T02:46:06.954Z,13.40
2023-05-11T02:48:40.142Z,13.40
2023-05-11T02:51:11.038Z,13.30
2023-05-11T02:53:45.885Z,13.30
2023-05-11T02:56:13.895Z,13.40
2023-05-11T02:58:41.207Z,13.30
2023-05-11T03:01:24.563Z,13.40
2023-05-11T03:03:52.167Z,13.30
2023-05-11T03:06:18.898Z,13.30
2023-05-11T03:08:46.761Z,13.40
2023-05-11T03:11:15.406Z,13.20
2023-05-11T03:13:44.359Z,13.30
2023-05-11T03:16:13.493Z,13.30
2023-05-11T03:18:40.930Z,13.30
2023-05-11T03:21:08.285Z,13.20
2023-05-11T03:23:37.002Z,13.20
2023-05-11T03:26:06.153Z,13.20
2023-05-11T03:28:33.894Z,13.20
2023-05-11T03:31:05.432Z,13.10
2023-05-11T03:33:33.069Z,13.10
2023-05-11T03:36:04.353Z,13.10
2023-05-11T03:38:34.856Z,13.00
2023-05-11T03:41:02.671Z,13.00
2023-05-11T03:43:36.093Z,13.10
2023-05-11T03:46:04.664Z,13.00
2023-05-11T03:48:32.254Z,13.00
2023-05-11T03:50:59.708Z,13.00
2023-05-11T03:53:27.130Z,13.00
2023-05-11T03:55:54.794Z,12.90
2023-05-11T03:58:22.683Z,13.00
2023-05-11T04:00:49.595Z,12.90
2023-05-11T04:03:16.558Z,12.90
2023-05-11T04:05:43.491Z,13.00
2023-05-11T04:08:12.938Z,12.80
2023-05-11T04:10:39.644Z,12.80
2023-05-11T04:13:06.421Z,12.80
2023-05-11T04:15:33.263Z,12.80
2023-05-11T04:18:00.739Z,12.80
2023-05-11T04:20:27.824Z,12.80
2023-05-11T04:22:54.734Z,12.80
2023-05-11T04:25:21.559Z,12.80
2023-05-11T04:27:48.269Z,12.80
2023-05-11T04:30:16.339Z,12.80
2023-05-11T04:32:43.299Z,12.70
2023-05-11T04:35:10.271Z,12.70
2023-05-11T04:37:38.761Z,12.80
2023-05-11T04:40:08.171Z,12.80
2023-05-11T04:42:43.131Z,12.80
2023-05-11T04:45:14.751Z,12.80
2023-05-11T04:47:42.448Z,12.90
2023-05-11T04:50:11.450Z,13.00
2023-05-11T04:52:38.168Z,13.00
2023-05-11T04:55:06.184Z,13.00
2023-05-11T04:57:33.056Z,12.90
2023-05-11T05:00:02.211Z,12.90
2023-05-11T05:02:29.037Z,12.90
2023-05-11T05:04:55.898Z,12.90
2023-05-11T05:07:23.427Z,13.00
2023-05-11T05:09:50.326Z,13.00
2023-05-11T05:12:17.040Z,12.90
2023-05-11T05:14:43.736Z,12.90
2023-05-11T05:17:10.631Z,12.90
2023-05-11T05:19:38.191Z,12.90
2023-05-11T05:22:05.843Z,13.00
2023-05-11T05:24:33.160Z,13.00
2023-05-11T05:26:59.910Z,13.00
2023-05-11T05:29:27.123Z,13.00
2023-05-11T05:31:54.396Z,13.00
2023-05-11T05:34:22.285Z,13.00
2023-05-11T05:36:48.966Z,13.10
2023-05-11T05:39:15.736Z,13.00
2023-05-11T05:41:42.809Z,13.10
2023-05-11T05:44:10.459Z,13.10
2023-05-11T05:46:38.393Z,13.10
2023-05-11T05:49:05.486Z,13.20
2023-05-11T05:51:32.726Z,13.30
2023-05-11T05:53:59.579Z,13.20
2023-05-11T05:56:26.945Z,13.20
2023-05-11T05:58:53.660Z,13.30
2023-05-11T06:01:20.462Z,13.40
2023-05-11T06:03:48.348Z,13.40
2023-05-11T06:06:15.292Z,13.40
2023-05-11T06:08:43.440Z,13.30
2023-05-11T06:11:10.365Z,13.30
2023-05-11T06:13:37.071Z,13.30
2023-05-11T06:16:04.525Z,13.40
2023-05-11T06:18:33.837Z,13.40
2023-05-11T06:21:02.495Z,13.50
2023-05-11T06:23:31.234Z,13.40
2023-05-11T06:25:57.879Z,13.40
2023-05-11T06:28:26.048Z,13.60
2023-05-11T06:30:59.138Z,13.60
2023-05-11T06:33:27.843Z,13.50
2023-05-11T06:35:55.812Z,13.40
2023-05-11T06:38:22.809Z,13.40
2023-05-11T06:40:53.367Z,13.40
2023-05-11T06:43:20.122Z,13.50
2023-05-11T06:45:48.715Z,13.60
2023-05-11T06:48:17.292Z,13.50
2023-05-11T06:50:44.047Z,13.60
2023-05-11T06:53:13.262Z,13.50
2023-05-11T06:55:40.008Z,13.60
2023-05-11T06:58:06.930Z,13.50
2023-05-11T07:00:34.233Z,13.50
2023-05-11T07:03:01.012Z,13.50
2023-05-11T07:05:28.018Z,13.40
2023-05-11T07:07:54.741Z,13.40
2023-05-11T07:10:21.544Z,13.40
2023-05-11T07:12:48.834Z,13.40
2023-05-11T07:15:15.532Z,13.40
2023-05-11T07:17:42.218Z,13.50
2023-05-11T07:20:09.267Z,13.50
2023-05-11T07:22:36.074Z,13.50
2023-05-11T07:25:02.843Z,13.40
2023-05-11T07:27:31.079Z,13.50
2023-05-11T07:29:57.698Z,13.70
2023-05-11T07:32:24.685Z,13.90
2023-05-11T07:34:51.393Z,13.80
2023-05-11T07:37:18.306Z,13.90
2023-05-11T07:39:44.944Z,13.90
2023-05-11T07:42:12.619Z,13.90
2023-05-11T07:44:39.256Z,13.90
2023-05-11T07:47:06.059Z,13.80
2023-05-11T07:49:42.994Z,13.90
2023-05-11T07:52:11.119Z,13.70
2023-05-11T07:54:38.798Z,13.80
2023-05-11T07:57:05.751Z,13.60
2023-05-11T07:59:32.555Z,13.80
2023-05-11T08:01:59.496Z,14.00
2023-05-11T08:04:27.467Z,13.70
2023-05-11T08:06:55.325Z,13.70
2023-05-11T08:09:22.580Z,13.90
2023-05-11T08:11:49.813Z,13.80
2023-05-11T08:14:17.085Z,14.00
2023-05-11T08:16:44.000Z,14.00
2023-05-11T08:19:11.674Z,13.80
2023-05-11T08:21:38.618Z,14.00
2023-05-11T08:24:06.099Z,13.90
2023-05-11T08:26:33.501Z,13.90
2023-05-11T08:29:00.343Z,14.00
2023-05-11T08:31:27.851Z,14.00
2023-05-11T08:33:54.727Z,14.00
2023-05-11T08:36:21.953Z,14.20
2023-05-11T08:38:48.726Z,14.10
2023-05-11T08:41:15.372Z,14.10
2023-05-11T08:43:45.609Z,14.20
2023-05-11T08:46:17.670Z,14.40
2023-05-11T08:48:44.691Z,14.40
2023-05-11T08:51:11.500Z,14.30
2023-05-11T08:53:38.806Z,14.40
2023-05-11T08:56:08.405Z,14.60
2023-05-11T08:58:39.396Z,14.60
2023-05-11T09:01:06.553Z,14.80
2023-05-11T09:03:35.924Z,14.70
2023-05-11T09:06:07.069Z,14.80
2023-05-11T09:08:38.553Z,14.60
2023-05-11T09:11:06.389Z,14.30
2023-05-11T09:13:33.335Z,14.20
2023-05-11T09:16:00.159Z,14.30
2023-05-11T09:18:27.831Z,14.40
2023-05-11T09:20:54.599Z,14.50
2023-05-11T09:23:31.964Z,14.80
2023-05-11T09:25:58.714Z,15.00
2023-05-11T09:28:26.302Z,14.90
2023-05-11T09:30:53.559Z,14.80
2023-05-11T09:33:24.772Z,14.90
2023-05-11T09:35:51.879Z,14.90
2023-05-11T09:38:23.044Z,14.80
2023-05-11T09:40:56.914Z,14.80
2023-05-11T09:43:25.800Z,14.90
2023-05-11T09:45:54.821Z,14.90
2023-05-11T09:48:21.762Z,14.90
2023-05-11T09:50:50.188Z,15.10
2023-05-11T09:53:17.440Z,15.00
2023-05-11T09:55:55.368Z,15.30
2023-05-11T09:58:22.270Z,15.00
2023-05-11T10:00:53.784Z,14.80
2023-05-11T10:03:20.896Z,15.10
2023-05-11T10:05:59.117Z,15.00
2023-05-11T10:08:30.771Z,15.00
2023-05-11T10:10:58.225Z,15.10
2023-05-11T10:13:26.403Z,15.10
2023-05-11T10:15:54.942Z,15.20
2023-05-11T10:18:21.790Z,14.70
2023-05-11T10:20:49.820Z,15.00
2023-05-11T10:23:17.647Z,15.00
2023-05-11T10:25:45.125Z,15.10
2023-05-11T10:28:11.963Z,15.30
2023-05-11T10:30:38.982Z,15.50
2023-05-11T10:33:06.916Z,15.40
2023-05-11T10:35:35.010Z,15.10
2023-05-11T10:38:02.704Z,15.20
2023-05-11T10:40:30.139Z,15.20
2023-05-11T10:43:37.481Z,15.30
2023-05-11T10:46:33.365Z,15.40
2023-05-11T10:49:28.678Z,15.30
2023-05-11T10:52:08.114Z,15.00
2023-05-11T10:55:05.805Z,15.20
2023-05-11T10:58:10.374Z,14.90
2023-05-11T11:01:20.552Z,15.20
2023-05-11T11:03:59.438Z,15.50
2023-05-11T11:06:28.423Z,15.10
2023-05-11T11:08:57.922Z,15.10
2023-05-11T11:11:45.772Z,15.30
2023-05-11T11:14:14.721Z,15.50
2023-05-11T11:17:02.329Z,15.30
2023-05-11T11:19:31.812Z,15.40
2023-05-11T11:22:00.200Z,15.80
2023-05-11T11:24:43.251Z,15.70
2023-05-11T11:27:10.202Z,15.70
2023-05-11T11:29:40.240Z,15.60
2023-05-11T11:32:25.128Z,15.70
2023-05-11T11:34:52.072Z,16.00
2023-05-11T11:37:20.520Z,15.60
2023-05-11T11:39:50.930Z,15.40
2023-05-11T11:42:42.004Z,15.50
2023-05-11T11:45:30.369Z,15.40
2023-05-11T11:48:07.595Z,15.60
2023-05-11T11:50:35.112Z,15.70
2023-05-11T11:53:03.919Z,15.70
2023-05-11T11:55:52.671Z,15.40
2023-05-11T11:58:41.825Z,15.10
2023-05-11T12:01:34.776Z,15.40
2023-05-11T12:04:04.914Z,15.40
2023-05-11T12:06:40.326Z,15.50
2023-05-11T12:09:08.022Z,15.80
2023-05-11T12:11:34.922Z,15.90
2023-05-11T12:14:03.028Z,15.80
2023-05-11T12:16:30.095Z,15.70
2023-05-11T12:19:01.591Z,15.30
2023-05-11T12:21:33.834Z,15.30
2023-05-11T12:24:02.780Z,15.30
2023-05-11T12:26:30.940Z,15.50
2023-05-11T12:29:09.110Z,15.30
2023-05-11T12:31:45.697Z,15.50
2023-05-11T12:34:17.730Z,15.60
2023-05-11T12:36:46.202Z,15.70
2023-05-11T12:39:21.653Z,15.60
2023-05-11T12:41:50.384Z,15.60
2023-05-11T12:44:18.926Z,15.80
2023-05-11T12:46:50.630Z,16.10
2023-05-11T12:49:26.178Z,16.30
2023-05-11T12:52:00.373Z,16.00
2023-05-11T12:54:38.052Z,15.60
2023-05-11T12:57:07.492Z,15.80
2023-05-11T12:59:40.806Z,15.90
2023-05-11T13:02:17.170Z,15.60
2023-05-11T13:04:44.800Z,15.70
2023-05-11T13:07:13.986Z,15.80
2023-05-11T13:09:41.366Z,15.60
2023-05-11T13:12:18.226Z,15.80
2023-05-11T13:14:49.564Z,16.10
2023-05-11T13:17:33.782Z,16.30
2023-05-11T13:20:19.699Z,16.40
2023-05-11T13:22:47.842Z,16.00
2023-05-11T13:25:16.816Z,16.00
2023-05-11T13:27:43.977Z,15.70
2023-05-11T13:30:11.465Z,15.70
2023-05-11T13:32:39.028Z,15.70
2023-05-11T13:35:06.819Z,15.70
2023-05-11T13:37:33.596Z,15.70
2023-05-11T13:40:00.806Z,16.00
2023-05-11T13:42:28.856Z,16.00
2023-05-11T13:44:55.691Z,15.70
2023-05-11T13:47:22.658Z,15.60
2023-05-11T13:49:49.350Z,15.40
2023-05-11T13:52:16.121Z,15.40
2023-05-11T13:54:42.799Z,15.70
2023-05-11T13:57:09.573Z,15.40
2023-05-11T13:59:36.356Z,15.50
2023-05-11T14:02:03.133Z,15.60
2023-05-11T14:04:29.938Z,15.40
2023-05-11T14:06:56.875Z,15.40
2023-05-11T14:09:23.852Z,15.50
2023-05-11T14:11:50.767Z,15.70
2023-05-11T14:14:19.578Z,15.80
2023-05-11T14:16:46.346Z,15.90
2023-05-11T14:19:14.497Z,15.90
2023-05-11T14:21:44.095Z,15.70
2023-05-11T14:24:12.648Z,15.60
2023-05-11T14:26:40.223Z,15.50
2023-05-11T14:29:07.029Z,15.40
2023-05-11T14:31:35.411Z,15.50
2023-05-11T14:34:03.549Z,15.40
2023-05-11T14:36:31.680Z,15.60
2023-05-11T14:38:58.512Z,15.50
2023-05-11T14:41:25.576Z,15.50
2023-05-11T14:43:52.492Z,15.40
2023-05-11T14:46:19.540Z,15.30
2023-05-11T14:48:46.367Z,15.20
2023-05-11T14:51:13.160Z,15.10
2023-05-11T14:53:39.877Z,15.10
2023-05-11T14:56:11.923Z,15.20
2023-05-11T14:58:41.577Z,15.20
2023-05-11T15:01:08.586Z,15.20
2023-05-11T15:03:37.208Z,15.00
2023-05-11T15:06:04.434Z,15.10
2023-05-11T15:08:32.295Z,15.10
2023-05-11T15:10:58.999Z,15.30
2023-05-11T15:13:25.874Z,15.30
2023-05-11T15:15:52.635Z,15.30
2023-05-11T15:18:19.504Z,15.30
2023-05-11T15:20:46.682Z,15.40
2023-05-11T15:23:17.201Z,15.50
2023-05-11T15:25:44.956Z,15.30
2023-05-11T15:28:13.288Z,15.20
2023-05-11T15:30:41.421Z,15.00
2023-05-11T15:33:10.595Z,15.00
2023-05-11T15:35:38.044Z,14.90
2023-05-11T15:38:05.481Z,15.10
2023-05-11T15:40:32.512Z,15.10
2023-05-11T15:42:59.227Z,15.00
2023-05-11T15:45:26.464Z,14.70
2023-05-11T15:47:54.159Z,14.60
2023-05-11T15:50:22.043Z,14.50
2023-05-11T15:52:49.158Z,14.60
2023-05-11T15:55:16.085Z,14.60
2023-05-11T15:57:43.018Z,14.50
2023-05-11T16:00:10.513Z,14.40
2023-05-11T16:02:39.675Z,14.30
2023-05-11T16:05:06.852Z,14.30
2023-05-11T16:07:33.618Z,14.40
2023-05-11T16:10:00.523Z,14.30
2023-05-11T16:12:27.772Z,14.30
2023-05-11T16:14:54.489Z,14.30
2023-05-11T16:17:21.439Z,14.20
2023-05-11T16:19:48.550Z,14.30
2023-05-11T16:22:15.238Z,14.30
2023-05-11T16:24:41.950Z,14.50
2023-05-11T16:27:08.588Z,14.40
2023-05-11T16:29:36.274Z,14.30
2023-05-11T16:32:03.096Z,14.40
2023-05-11T16:34:29.966Z,14.50
2023-05-11T16:36:58.764Z,14.40
2023-05-11T16:39:26.698Z,14.40
2023-05-11T16:41:53.324Z,14.40
2023-05-11T16:44:19.986Z,14.40
2023-05-11T16:46:47.510Z,14.30
2023-05-11T16:49:14.227Z,14.30
2023-05-11T16:51:40.864Z,14.40
2023-05-11T16:54:07.833Z,14.40
2023-05-11T16:56:34.483Z,14.40
2023-05-11T16:59:01.140Z,14.40
2023-05-11T17:01:28.464Z,14.30
2023-05-11T17:03:55.223Z,14.40
2023-05-11T17:06:23.866Z,14.40
2023-05-11T17:08:51.190Z,14.30
2023-05-11T17:11:17.938Z,14.40
2023-05-11T17:13:44.611Z,14.30
2023-05-11T17:16:11.662Z,14.40
2023-05-11T17:18:38.407Z,14.30
2023-05-11T17:21:05.546Z,14.20
2023-05-11T17:23:32.759Z,14.30
2023-05-11T17:25:59.797Z,14.10
2023-05-11T17:28:27.399Z,14.10
2023-05-11T17:30:54.552Z,14.20
2023-05-11T17:33:23.383Z,14.10
2023-05-11T17:35:51.290Z,14.10
2023-05-11T17:38:17.966Z,14.10
2023-05-11T17:40:45.016Z,14.10
2023-05-11T17:43:11.784Z,14.10
2023-05-11T17:45:38.745Z,14.10
2023-05-11T17:48:05.773Z,14.10
2023-05-11T17:50:33.302Z,14.10
2023-05-11T17:52:59.985Z,14.00
2023-05-11T17:55:27.642Z,14.10
2023-05-11T17:57:54.406Z,14.00
2023-05-11T18:00:22.026Z,14.00
2023-05-11T18:02:49.183Z,14.10
2023-05-11T18:05:16.238Z,14.00
2023-05-11T18:07:42.981Z,14.00
2023-05-11T18:10:11.037Z,14.00
2023-05-11T18:12:38.041Z,14.10
2023-05-11T18:15:08.525Z,14.00
2023-05-11T18:17:35.457Z,14.00
2023-05-11T18:20:04.946Z,14.00
2023-05-11T18:22:31.632Z,14.00
2023-05-11T18:24:58.295Z,13.90
2023-05-11T18:27:25.704Z,14.00
2023-05-11T18:29:53.447Z,13.90
2023-05-11T18:32:20.479Z,13.90
2023-05-11T18:34:47.984Z,13.90
2023-05-11T18:37:14.771Z,14.00
2023-05-11T18:39:41.422Z,14.00
2023-05-11T18:42:08.157Z,13.90
2023-05-11T18:44:35.334Z,13.90
2023-05-11T18:47:03.749Z,14.00
2023-05-11T18:49:30.494Z,13.90
2023-05-11T18:51:58.141Z,13.90
2023-05-11T18:54:24.945Z,13.90
2023-05-11T18:56:51.700Z,13.90
2023-05-11T18:59:18.563Z,13.90
2023-05-11T19:01:48.421Z,13.90
2023-05-11T19:04:19.489Z,13.90
2023-05-11T19:06:46.351Z,13.90
2023-05-11T19:09:13.083Z,13.90
2023-05-11T19:11:39.757Z,13.90
2023-05-11T19:14:07.567Z,14.00
2023-05-11T19:16:35.761Z,13.90
2023-05-11T19:19:02.806Z,14.00
2023-05-11T19:21:29.701Z,13.90
2023-05-11T19:23:56.366Z,13.90
2023-05-11T19:26:23.072Z,14.00
2023-05-11T19:28:49.850Z,13.90
2023-05-11T19:31:16.642Z,13.90
2023-05-11T19:33:43.424Z,13.90
2023-05-11T19:36:10.093Z,13.90
2023-05-11T19:38:37.989Z,13.90
2023-05-11T19:41:04.637Z,13.90
2023-05-11T19:43:31.330Z,13.90
2023-05-11T19:45:58.789Z,13.90
2023-05-11T19:48:25.600Z,13.90
2023-05-11T19:50:52.530Z,13.90
2023-05-11T19:53:19.179Z,13.90
2023-05-11T19:55:47.919Z,13.90
2023-05-11T19:58:14.966Z,13.90
2023-05-11T20:00:42.325Z,13.90
2023-05-11T20:03:09.133Z,13.90
2023-05-11T20:05:36.609Z,13.90
2023-05-11T20:08:03.361Z,14.00
2023-05-11T20:10:30.447Z,13.90
2023-05-11T20:12:58.882Z,14.00
2023-05-11T20:15:26.477Z,14.00
2023-05-11T20:17:53.206Z,13.90
2023-05-11T20:20:20.071Z,14.00
2023-05-11T20:22:47.012Z,13.90
2023-05-11T20:25:18.480Z,13.90
2023-05-11T20:27:45.811Z,13.90
2023-05-11T20:30:12.907Z,13.90
2023-05-11T20:32:39.691Z,13.90
2023-05-11T20:35:06.968Z,14.00
2023-05-11T20:37:33.767Z,13.90
2023-05-11T20:40:00.439Z,13.90
2023-05-11T20:42:27.753Z,14.00
2023-05-11T20:44:54.448Z,14.00
2023-05-11T20:47:21.297Z,14.00
2023-05-11T20:49:47.958Z,14.00
2023-05-11T20:52:15.156Z,14.00
2023-05-11T20:54:42.133Z,14.00
2023-05-11T20:57:08.993Z,14.00
2023-05-11T21:02:05.478Z,14.00
2023-05-11T21:04:32.202Z,14.00
2023-05-11T21:06:58.893Z,14.00
2023-05-11T21:09:25.772Z,14.00
2023-05-11T21:11:52.594Z,14.00
2023-05-11T21:14:20.053Z,14.00
2023-05-11T21:16:47.233Z,14.00
2023-05-11T21:19:15.902Z,14.00
2023-05-11T21:21:43.169Z,14.10
2023-05-11T21:24:09.899Z,14.00
2023-05-11T21:26:36.612Z,14.00
2023-05-11T21:29:03.289Z,14.00
2023-05-11T21:31:30.032Z,14.20
2023-05-11T21:33:57.660Z,14.10
2023-05-11T21:36:25.000Z,14.10
2023-05-11T21:38:51.702Z,14.10
2023-05-11T21:41:18.418Z,14.10
2023-05-11T21:43:45.450Z,14.10
2023-05-11T21:46:12.708Z,14.00
2023-05-11T21:48:39.548Z,14.00
2023-05-11T21:51:06.321Z,14.00
2023-05-11T21:53:33.073Z,14.10
2023-05-11T21:55:59.970Z,14.10
2023-05-11T21:58:27.448Z,14.10
2023-05-11T22:00:54.985Z,14.00
2023-05-11T22:03:21.829Z,14.00
2023-05-11T22:05:51.454Z,14.00
2023-05-11T22:08:18.192Z,14.00
2023-05-11T22:10:44.908Z,14.00
2023-05-11T22:13:11.633Z,14.00
2023-05-11T22:15:38.413Z,14.00
2023-05-11T22:18:05.245Z,14.00
2023-05-11T22:20:32.007Z,13.90
2023-05-11T22:22:59.247Z,13.90
2023-05-11T22:25:28.029Z,13.80
2023-05-11T22:27:54.719Z,13.80
2023-05-11T22:30:21.805Z,13.70
2023-05-11T22:32:48.658Z,13.70
2023-05-11T22:35:16.432Z,13.70
2023-05-11T22:37:43.227Z,13.70
2023-05-11T22:40:10.332Z,13.60
2023-05-11T22:42:37.828Z,13.60
2023-05-11T22:45:05.000Z,13.70
2023-05-11T22:47:31.902Z,13.70
2023-05-11T22:49:58.600Z,13.70
2023-05-11T22:52:25.264Z,13.60
2023-05-11T22:54:55.200Z,13.60
2023-05-11T22:57:24.411Z,13.60
2023-05-11T22:59:51.353Z,13.50
2023-05-11T23:02:18.033Z,13.50
2023-05-11T23:04:50.326Z,13.50
2023-05-11T23:07:18.085Z,13.40
2023-05-11T23:09:45.088Z,13.30
2023-05-11T23:12:11.947Z,13.30
2023-05-11T23:14:38.598Z,13.30
2023-05-11T23:17:05.296Z,13.20
2023-05-11T23:19:32.115Z,13.20
2023-05-11T23:21:58.921Z,13.10
2023-05-11T23:24:25.588Z,13.10
2023-05-11T23:26:52.308Z,13.10
2023-05-11T23:29:19.193Z,13.00
2023-05-11T23:31:46.416Z,13.00
2023-05-11T23:34:13.216Z,13.00
2023-05-11T23:36:39.938Z,13.00
2023-05-11T23:39:06.693Z,13.10
2023-05-11T23:41:33.439Z,13.20
2023-05-11T23:44:00.545Z,13.20
2023-05-11T23:46:28.278Z,13.10
2023-05-11T23:48:55.759Z,13.10
2023-05-11T23:51:22.442Z,13.00
2023-05-11T23:53:49.090Z,13.00
2023-05-11T23:56:15.759Z,13.00
2023-05-11T23:58:45.520Z,13.10
